Time;durP1;ratioP1;P1;durP2;ratioP2;P2;SDS_P1;SDS_P2;PMS_P1;PMS_P2;Temp;Humidity;BMP_temperature;BMP_pressure;BME280_temperature;BME280_humidity;BME280_pressure;Samples;Min_cycle;Max_cycle;Signal;HPM_P1;HPM_P2
2023/04/28 00:00:25;;;;;;;4.77;4.00;;;18.20;46.60;;;;;;4953058;28;20534;-55
2023/04/28 00:02:51;;;;;;;3.97;3.57;;;18.00;46.40;;;;;;4948886;29;20510;-55
2023/04/28 00:05:17;;;;;;;4.40;3.93;;;18.00;46.20;;;;;;4952157;28;20200;-51
2023/04/28 00:07:42;;;;;;;4.47;4.07;;;17.90;46.80;;;;;;4949207;28;20200;-53
2023/04/28 00:10:09;;;;;;;5.27;3.60;;;18.00;46.80;;;;;;4950938;29;20219;-55
2023/04/28 00:12:34;;;;;;;5.60;4.00;;;17.90;46.90;;;;;;4942093;28;20319;-57
2023/04/28 00:15:00;;;;;;;9.23;4.30;;;17.70;47.00;;;;;;4939981;28;20518;-56
2023/04/28 00:17:26;;;;;;;4.50;4.10;;;17.40;47.00;;;;;;4950696;28;20211;-54
2023/04/28 00:19:51;;;;;;;4.03;3.60;;;17.10;47.60;;;;;;4949357;29;20210;-55
2023/04/28 00:22:17;;;;;;;3.40;3.03;;;16.90;48.90;;;;;;4946229;28;20331;-55
2023/04/28 00:24:43;;;;;;;4.23;3.53;;;17.00;49.20;;;;;;4948133;28;20258;-54
2023/04/28 00:27:09;;;;;;;4.10;3.70;;;17.10;49.60;;;;;;4950618;28;20298;-53
2023/04/28 00:29:35;;;;;;;5.00;4.37;;;17.20;48.90;;;;;;4949482;28;20995;-54
2023/04/28 00:32:01;;;;;;;7.10;3.60;;;17.20;48.60;;;;;;4950336;28;20238;-54
2023/04/28 00:34:28;;;;;;;4.73;3.80;;;17.30;48.30;;;;;;4949154;28;21461;-54
2023/04/28 00:36:54;;;;;;;5.10;3.73;;;17.20;48.30;;;;;;4949901;29;20558;-55
2023/04/28 00:39:21;;;;;;;3.90;3.40;;;17.30;48.30;;;;;;4948147;28;20534;-56
2023/04/28 00:41:47;;;;;;;4.37;3.97;;;17.20;48.40;;;;;;4949715;29;20204;-54
2023/04/28 00:44:13;;;;;;;3.80;3.50;;;17.10;48.40;;;;;;4950929;28;20978;-55
2023/04/28 00:46:38;;;;;;;3.90;3.50;;;17.20;48.60;;;;;;4948424;29;20620;-53
2023/04/28 00:49:04;;;;;;;7.33;3.50;;;17.20;48.60;;;;;;4955154;28;20221;-52
2023/04/28 00:51:32;;;;;;;5.60;4.00;;;17.30;48.60;;;;;;4961279;28;20227;-54
2023/04/28 00:53:58;;;;;;;4.73;3.87;;;17.50;48.20;;;;;;4951767;28;20534;-54
2023/04/28 00:56:26;;;;;;;5.57;3.73;;;17.60;47.90;;;;;;4949592;28;20450;-52
2023/04/28 00:58:52;;;;;;;5.00;3.50;;;17.70;47.90;;;;;;4945684;28;20455;-55
2023/04/28 01:01:18;;;;;;;3.87;3.57;;;17.80;47.90;;;;;;4952138;28;20444;-54
2023/04/28 01:03:43;;;;;;;5.67;4.07;;;17.80;47.50;;;;;;4951955;29;20459;-54
2023/04/28 01:06:10;;;;;;;5.67;3.40;;;17.80;47.40;;;;;;4950808;29;20566;-55
2023/04/28 01:08:37;;;;;;;4.47;4.13;;;17.90;47.40;;;;;;4949311;29;20204;-54
2023/04/28 01:11:03;;;;;;;4.13;3.73;;;18.10;47.20;;;;;;4950592;28;20427;-55
2023/04/28 01:13:29;;;;;;;5.20;3.57;;;18.10;46.80;;;;;;4939350;29;20440;-56
2023/04/28 01:15:55;;;;;;;4.33;3.50;;;18.00;47.00;;;;;;4948221;28;20304;-51
2023/04/28 01:18:21;;;;;;;4.07;3.50;;;17.90;47.40;;;;;;4949105;29;20239;-55
2023/04/28 01:20:47;;;;;;;3.50;3.20;;;17.90;47.60;;;;;;4941515;28;20448;-52
2023/04/28 01:23:13;;;;;;;6.10;3.77;;;18.00;47.60;;;;;;4950306;29;20975;-53
2023/04/28 01:25:40;;;;;;;5.13;3.20;;;18.00;47.30;;;;;;4939376;29;20227;-56
2023/04/28 01:28:06;;;;;;;7.97;4.20;;;18.10;47.20;;;;;;4947597;29;20456;-54
2023/04/28 01:30:32;;;;;;;4.97;4.03;;;18.30;47.00;;;;;;4939680;29;20532;-53
2023/04/28 01:32:57;;;;;;;4.77;3.80;;;18.40;46.80;;;;;;4946768;28;20577;-55
2023/04/28 01:35:23;;;;;;;3.57;3.27;;;18.50;46.70;;;;;;4957512;28;20269;-55
2023/04/28 01:37:48;;;;;;;4.40;3.60;;;18.50;46.70;;;;;;4956215;29;20191;-55
2023/04/28 01:40:14;;;;;;;4.40;3.63;;;18.50;46.90;;;;;;4954550;28;20199;-54
2023/04/28 01:42:40;;;;;;;4.53;3.80;;;18.40;47.00;;;;;;4955119;29;20206;-55
2023/04/28 01:45:06;;;;;;;4.23;3.83;;;18.40;47.10;;;;;;4954588;29;20559;-52
2023/04/28 01:47:31;;;;;;;3.80;3.50;;;18.40;46.90;;;;;;4952717;29;20235;-54
2023/04/28 01:49:57;;;;;;;3.57;3.27;;;18.30;47.00;;;;;;4953423;29;20530;-54
2023/04/28 01:52:23;;;;;;;4.17;3.87;;;18.20;47.40;;;;;;4955869;28;20255;-55
2023/04/28 01:54:49;;;;;;;6.20;4.50;;;18.30;47.50;;;;;;4956207;28;20192;-55
2023/04/28 01:57:15;;;;;;;4.63;3.60;;;18.30;47.60;;;;;;4955117;28;20855;-55
2023/04/28 01:59:41;;;;;;;4.50;3.60;;;18.20;47.90;;;;;;4954750;28;20455;-53
2023/04/28 02:02:06;;;;;;;5.10;3.67;;;18.10;48.20;;;;;;4947729;28;21192;-53
2023/04/28 02:04:32;;;;;;;3.70;3.40;;;18.10;48.70;;;;;;4953638;28;20652;-55
2023/04/28 02:06:57;;;;;;;3.80;3.47;;;18.10;48.60;;;;;;4946875;28;20203;-54
2023/04/28 02:09:23;;;;;;;6.93;3.63;;;18.20;48.40;;;;;;4955871;28;20192;-53
2023/04/28 02:11:49;;;;;;;3.97;3.67;;;18.20;48.50;;;;;;4950831;28;20247;-53
2023/04/28 02:14:14;;;;;;;4.83;3.50;;;18.30;48.40;;;;;;4951875;28;20216;-51
2023/04/28 02:16:40;;;;;;;3.80;3.40;;;18.40;48.20;;;;;;4951531;28;20196;-55
2023/04/28 02:19:06;;;;;;;5.03;4.10;;;18.40;47.90;;;;;;4950790;28;20192;-55
2023/04/28 02:21:31;;;;;;;4.73;3.30;;;18.50;47.80;;;;;;4953636;28;20196;-56
2023/04/28 02:23:57;;;;;;;4.20;3.77;;;18.60;47.50;;;;;;4945706;28;20659;-55
2023/04/28 02:26:23;;;;;;;3.70;3.40;;;18.20;47.90;;;;;;4953037;29;20208;-55
2023/04/28 02:28:49;;;;;;;4.93;3.10;;;18.20;48.50;;;;;;4954110;29;20234;-55
2023/04/28 02:31:15;;;;;;;4.13;3.73;;;17.80;49.10;;;;;;4954448;28;20551;-55
2023/04/28 02:33:43;;;;;;;6.20;3.60;;;18.00;49.20;;;;;;4953373;29;20253;-54
2023/04/28 02:36:09;;;;;;;4.63;3.37;;;18.10;48.70;;;;;;4952667;28;20315;-55
2023/04/28 02:38:35;;;;;;;4.10;3.23;;;18.30;48.50;;;;;;4954141;28;20438;-56
2023/04/28 02:41:03;;;;;;;5.50;3.70;;;18.40;48.10;;;;;;4954723;29;20436;-51
2023/04/28 02:43:30;;;;;;;2.97;2.73;;;18.40;48.20;;;;;;4954019;28;20200;-54
2023/04/28 02:45:55;;;;;;;4.57;3.43;;;18.50;48.00;;;;;;4939824;28;20532;-55
2023/04/28 02:48:21;;;;;;;3.57;3.27;;;18.50;47.80;;;;;;4947165;28;20460;-55
2023/04/28 02:50:47;;;;;;;5.63;4.10;;;18.30;48.10;;;;;;4956582;28;20195;-55
2023/04/28 02:53:13;;;;;;;5.10;4.10;;;18.20;48.20;;;;;;4950313;28;20862;-56
2023/04/28 02:55:38;;;;;;;4.10;3.80;;;18.30;48.30;;;;;;4946094;28;20204;-54
2023/04/28 02:58:04;;;;;;;5.07;3.60;;;18.20;48.20;;;;;;4947797;29;21037;-56
2023/04/28 03:00:29;;;;;;;7.67;3.80;;;18.00;48.90;;;;;;4950789;29;20251;-55
2023/04/28 03:02:55;;;;;;;4.20;3.80;;;18.10;49.00;;;;;;4953921;28;20671;-55
2023/04/28 03:05:21;;;;;;;4.63;3.53;;;18.10;48.70;;;;;;4952854;28;20299;-55
2023/04/28 03:07:46;;;;;;;3.73;3.30;;;18.30;48.60;;;;;;4951248;29;20196;-55
2023/04/28 03:10:12;;;;;;;4.13;3.43;;;18.50;48.60;;;;;;4953668;29;20576;-55
2023/04/28 03:12:37;;;;;;;8.50;4.67;;;18.60;48.60;;;;;;4953384;29;20255;-56
2023/04/28 03:15:03;;;;;;;5.63;3.10;;;18.60;48.50;;;;;;4963584;28;20200;-56
2023/04/28 03:17:29;;;;;;;5.20;3.70;;;18.70;48.80;;;;;;4950604;29;20200;-57
2023/04/28 03:19:54;;;;;;;3.87;3.40;;;18.70;48.90;;;;;;4939351;28;20197;-57
2023/04/28 03:22:20;;;;;;;4.60;3.60;;;18.80;49.00;;;;;;4952424;28;20649;-56
2023/04/28 03:24:46;;;;;;;4.80;4.20;;;18.90;49.10;;;;;;4951951;28;20204;-55
2023/04/28 03:27:11;;;;;;;6.30;3.80;;;19.00;49.20;;;;;;4944318;28;20280;-57
2023/04/28 03:29:37;;;;;;;6.23;3.83;;;19.10;48.90;;;;;;4957712;28;20196;-58
2023/04/28 03:32:02;;;;;;;5.50;4.20;;;19.10;48.90;;;;;;4953600;28;20219;-57
2023/04/28 03:34:28;;;;;;;4.17;3.87;;;19.20;49.30;;;;;;4954443;28;20227;-58
2023/04/28 03:36:53;;;;;;;5.23;3.50;;;19.20;49.60;;;;;;4954847;28;20594;-57
2023/04/28 03:39:19;;;;;;;4.37;4.00;;;19.30;50.10;;;;;;4954334;29;20195;-56
2023/04/28 03:41:44;;;;;;;3.97;3.67;;;19.40;50.00;;;;;;4954338;29;20206;-57
2023/04/28 03:44:10;;;;;;;3.83;3.43;;;19.40;50.30;;;;;;4954308;29;20196;-59
2023/04/28 03:46:36;;;;;;;6.63;4.60;;;19.50;50.20;;;;;;4954167;28;20262;-57
2023/04/28 03:49:02;;;;;;;8.67;4.77;;;19.30;49.60;;;;;;4953105;29;20195;-56
2023/04/28 03:51:28;;;;;;;7.20;5.50;;;19.30;50.20;;;;;;4947799;28;20476;-58
2023/04/28 03:53:54;;;;;;;4.60;4.20;;;19.20;50.40;;;;;;4952297;28;20192;-57
2023/04/28 03:56:20;;;;;;;5.60;4.37;;;19.10;50.40;;;;;;4941202;29;20539;-57
2023/04/28 03:58:46;;;;;;;6.17;5.07;;;19.10;50.50;;;;;;4954307;28;20200;-58
2023/04/28 04:01:11;;;;;;;5.73;3.63;;;19.00;50.10;;;;;;4950651;28;20522;-58
2023/04/28 04:03:37;;;;;;;4.87;4.13;;;18.90;50.10;;;;;;4952080;29;20235;-58
2023/04/28 04:06:03;;;;;;;4.43;4.07;;;18.80;50.10;;;;;;4952310;29;20231;-58
2023/04/28 04:08:29;;;;;;;4.67;4.27;;;18.40;51.20;;;;;;4951412;28;20656;-57
2023/04/28 04:10:54;;;;;;;5.07;4.20;;;18.00;52.00;;;;;;4950673;29;20196;-58
2023/04/28 04:13:22;;;;;;;7.83;4.53;;;17.80;53.10;;;;;;4951941;29;20571;-56
2023/04/28 04:15:49;;;;;;;5.03;4.43;;;17.70;53.10;;;;;;4951421;28;20208;-57
2023/04/28 04:18:15;;;;;;;4.57;4.20;;;17.80;53.60;;;;;;4946195;29;20452;-57
2023/04/28 04:20:40;;;;;;;5.70;4.83;;;17.90;52.90;;;;;;4938431;29;20437;-57
2023/04/28 04:23:06;;;;;;;4.60;4.20;;;18.10;52.60;;;;;;4947735;28;20195;-57
2023/04/28 04:25:32;;;;;;;4.50;4.10;;;18.10;52.50;;;;;;4951678;28;20648;-57
2023/04/28 04:27:58;;;;;;;6.83;4.37;;;18.20;53.10;;;;;;4948249;28;20204;-57
2023/04/28 04:30:24;;;;;;;4.30;3.90;;;18.30;52.20;;;;;;4951018;29;20625;-57
2023/04/28 04:32:49;;;;;;;5.77;3.90;;;18.40;52.00;;;;;;4947154;29;20572;-57
2023/04/28 04:35:15;;;;;;;4.67;4.30;;;18.50;51.80;;;;;;4947189;29;20719;-57
2023/04/28 04:37:41;;;;;;;4.43;4.03;;;18.60;51.40;;;;;;4949420;29;20204;-56
2023/04/28 04:40:07;;;;;;;4.50;4.10;;;18.70;51.30;;;;;;4946659;29;20644;-56
2023/04/28 04:42:32;;;;;;;4.33;3.93;;;18.80;51.20;;;;;;4951267;28;20200;-57
2023/04/28 04:44:58;;;;;;;4.30;3.73;;;18.80;51.20;;;;;;4946005;29;20791;-56
2023/04/28 04:47:24;;;;;;;4.63;3.80;;;18.80;51.20;;;;;;4951662;28;20199;-57
2023/04/28 04:49:51;;;;;;;4.70;3.73;;;18.80;51.10;;;;;;4951181;29;20204;-57
2023/04/28 04:52:16;;;;;;;4.43;4.07;;;18.80;50.80;;;;;;4960025;28;20292;-57
2023/04/28 04:54:42;;;;;;;5.83;4.07;;;18.70;50.90;;;;;;4948822;29;20531;-57
2023/04/28 04:57:08;;;;;;;5.13;4.63;;;18.40;51.20;;;;;;4950778;28;20438;-57
2023/04/28 04:59:33;;;;;;;5.07;3.90;;;18.30;52.00;;;;;;4950295;28;20911;-57
2023/04/28 05:02:00;;;;;;;9.10;4.70;;;18.30;52.30;;;;;;4952955;28;20691;-57
2023/04/28 05:04:26;;;;;;;5.90;4.27;;;18.40;52.40;;;;;;4953302;29;20498;-57
2023/04/28 05:06:51;;;;;;;5.13;4.60;;;18.40;52.70;;;;;;4949910;29;20204;-57
2023/04/28 05:09:17;;;;;;;4.17;3.73;;;18.40;52.90;;;;;;4945200;28;20641;-57
2023/04/28 05:11:42;;;;;;;4.20;3.83;;;18.10;53.10;;;;;;4950397;29;20271;-57
2023/04/28 05:14:08;;;;;;;4.07;3.67;;;17.90;54.30;;;;;;4952432;28;20639;-58
2023/04/28 05:16:34;;;;;;;6.30;4.47;;;17.70;54.50;;;;;;4961614;28;20203;-57
2023/04/28 05:18:59;;;;;;;4.70;3.33;;;18.00;54.40;;;;;;4947174;28;20216;-57
2023/04/28 05:21:25;;;;;;;5.90;3.70;;;18.10;54.10;;;;;;4940249;28;20219;-57
2023/04/28 05:23:52;;;;;;;7.43;4.30;;;18.10;54.20;;;;;;4949771;28;20199;-57
2023/04/28 05:26:18;;;;;;;5.10;4.60;;;18.20;54.40;;;;;;4948496;29;20196;-58
2023/04/28 05:28:43;;;;;;;6.10;4.97;;;18.20;54.90;;;;;;4942192;29;20523;-57
2023/04/28 05:31:09;;;;;;;4.70;4.30;;;18.10;55.00;;;;;;4946272;28;20287;-57
2023/04/28 05:33:35;;;;;;;5.53;5.03;;;18.20;55.00;;;;;;4952015;28;20199;-57
2023/04/28 05:36:00;;;;;;;6.37;5.73;;;18.10;55.30;;;;;;4947973;29;20580;-57
2023/04/28 05:38:26;;;;;;;5.80;5.20;;;18.10;55.60;;;;;;4949584;29;20239;-60
2023/04/28 05:40:51;;;;;;;7.83;5.70;;;18.20;55.50;;;;;;4948164;28;20200;-58
2023/04/28 05:43:17;;;;;;;6.20;5.60;;;18.30;55.40;;;;;;4950992;28;20198;-57
2023/04/28 05:45:43;;;;;;;5.43;4.20;;;18.30;55.30;;;;;;4949966;28;20277;-57
2023/04/28 05:48:08;;;;;;;7.30;4.93;;;18.10;55.60;;;;;;4954112;28;20219;-57
2023/04/28 05:50:34;;;;;;;4.87;4.43;;;17.70;56.60;;;;;;4951701;28;20616;-57
2023/04/28 05:52:59;;;;;;;5.10;4.50;;;17.80;57.10;;;;;;4951587;28;20266;-58
2023/04/28 05:55:25;;;;;;;4.77;4.17;;;17.70;57.60;;;;;;4940368;29;20307;-57
2023/04/28 05:57:53;;;;;;;6.33;5.23;;;17.70;58.40;;;;;;4944440;28;20207;-57
2023/04/28 06:00:18;;;;;;;4.20;3.80;;;17.80;58.70;;;;;;4946373;29;20455;-57
2023/04/28 06:02:44;;;;;;;4.73;4.33;;;17.90;59.20;;;;;;4940305;28;20456;-57
2023/04/28 06:05:10;;;;;;;5.20;4.70;;;17.80;59.90;;;;;;4948928;29;20530;-58
2023/04/28 06:07:35;;;;;;;4.73;4.20;;;17.60;60.70;;;;;;4943939;28;20228;-57
2023/04/28 06:10:01;;;;;;;4.10;3.80;;;17.70;61.40;;;;;;4939152;28;20281;-57
2023/04/28 06:12:26;;;;;;;4.40;4.00;;;17.60;61.70;;;;;;4942489;28;20320;-57
2023/04/28 06:14:54;;;;;;;5.73;5.00;;;17.60;62.40;;;;;;4947805;28;20192;-57
2023/04/28 06:17:20;;;;;;;7.10;4.33;;;17.60;62.90;;;;;;4944169;29;20280;-57
2023/04/28 06:19:46;;;;;;;4.30;3.90;;;17.60;62.50;;;;;;4945058;28;20875;-57
2023/04/28 06:22:11;;;;;;;5.03;4.50;;;17.60;62.50;;;;;;4952178;28;20819;-57
2023/04/28 06:24:37;;;;;;;4.37;4.00;;;17.60;62.90;;;;;;4955333;28;20196;-57
2023/04/28 06:27:03;;;;;;;5.40;4.90;;;17.50;63.20;;;;;;4953069;28;20196;-56
2023/04/28 06:29:28;;;;;;;5.07;4.50;;;17.60;63.80;;;;;;4955648;28;20211;-57
2023/04/28 06:31:56;;;;;;;4.90;4.40;;;17.70;63.30;;;;;;4955577;29;20250;-57
2023/04/28 06:34:26;;;;;;;5.37;4.87;;;17.90;62.90;;;;;;4955392;28;20204;-57
2023/04/28 06:36:52;;;;;;;4.60;4.10;;;17.90;63.00;;;;;;4952869;28;20486;-54
2023/04/28 06:39:17;;;;;;;4.87;4.40;;;17.80;63.80;;;;;;4951820;28;20439;-56
2023/04/28 06:41:43;;;;;;;4.40;4.00;;;17.90;64.10;;;;;;4954839;28;20287;-56
2023/04/28 06:44:09;;;;;;;4.10;3.70;;;18.00;64.10;;;;;;4955183;28;20637;-55
2023/04/28 06:46:36;;;;;;;4.23;3.83;;;18.00;64.30;;;;;;4953837;28;20227;-55
2023/04/28 06:49:01;;;;;;;3.30;3.00;;;17.60;66.60;;;;;;4954839;29;20436;-56
2023/04/28 06:51:27;;;;;;;6.17;3.90;;;17.30;67.90;;;;;;4962567;28;20449;-55
2023/04/28 06:53:53;;;;;;;4.77;3.77;;;17.30;68.70;;;;;;4955185;28;20267;-55
2023/04/28 06:56:19;;;;;;;6.80;4.30;;;17.40;68.60;;;;;;4955073;29;20222;-55
2023/04/28 06:58:44;;;;;;;5.87;3.60;;;17.60;68.00;;;;;;4951042;28;20199;-55
2023/04/28 07:01:10;;;;;;;4.13;3.73;;;17.60;68.10;;;;;;4974806;28;20249;-55
2023/04/28 07:03:36;;;;;;;5.90;4.00;;;17.50;68.60;;;;;;4964064;28;20200;-54
2023/04/28 07:06:02;;;;;;;6.43;4.10;;;17.40;68.90;;;;;;4954224;28;20564;-55
2023/04/28 07:08:29;;;;;;;6.43;4.20;;;17.30;69.30;;;;;;4954347;28;20259;-55
2023/04/28 07:10:55;;;;;;;4.47;4.07;;;17.50;69.20;;;;;;4954701;28;20444;-54
2023/04/28 07:13:21;;;;;;;5.00;4.27;;;17.40;69.10;;;;;;4952313;28;20490;-55
2023/04/28 07:15:46;;;;;;;4.30;3.90;;;17.10;70.40;;;;;;4952685;28;20451;-54
2023/04/28 07:18:12;;;;;;;4.83;4.43;;;17.00;71.30;;;;;;4954299;29;20199;-55
2023/04/28 07:20:37;;;;;;;4.63;4.23;;;17.00;71.80;;;;;;4954606;28;20308;-54
2023/04/28 07:23:03;;;;;;;4.30;3.90;;;17.00;71.80;;;;;;4954618;29;20561;-54
2023/04/28 07:25:29;;;;;;;5.83;4.33;;;17.20;71.60;;;;;;4952798;28;20211;-56
2023/04/28 07:27:55;;;;;;;4.90;4.40;;;17.50;70.00;;;;;;4954008;28;20679;-54
2023/04/28 07:30:20;;;;;;;5.07;4.53;;;17.70;68.80;;;;;;4952141;28;20206;-55
2023/04/28 07:32:46;;;;;;;6.50;5.00;;;17.90;68.10;;;;;;4953968;29;20851;-55
2023/04/28 07:35:12;;;;;;;4.27;3.97;;;18.00;67.50;;;;;;4954487;29;20822;-56
2023/04/28 07:37:38;;;;;;;4.80;4.40;;;17.90;67.70;;;;;;4953854;28;20243;-57
2023/04/28 07:40:04;;;;;;;4.53;4.23;;;17.90;67.60;;;;;;4952511;28;20192;-55
2023/04/28 07:42:30;;;;;;;5.50;4.47;;;17.90;67.90;;;;;;4952053;28;20283;-55
2023/04/28 07:44:57;;;;;;;4.43;4.03;;;18.00;67.40;;;;;;4954191;29;20511;-55
2023/04/28 07:47:22;;;;;;;6.13;4.47;;;18.10;67.30;;;;;;4953834;28;20278;-55
2023/04/28 07:49:48;;;;;;;4.80;4.40;;;18.20;67.10;;;;;;4952430;28;20427;-55
2023/04/28 07:52:14;;;;;;;5.73;4.30;;;18.30;66.70;;;;;;4951601;28;20231;-55
2023/04/28 07:54:40;;;;;;;4.40;4.00;;;18.40;66.50;;;;;;4950551;28;20292;-55
2023/04/28 07:57:05;;;;;;;4.70;3.70;;;18.50;66.40;;;;;;4952480;28;20211;-55
2023/04/28 07:59:34;;;;;;;4.07;3.77;;;18.50;66.40;;;;;;4945320;29;20435;-56
2023/04/28 08:02:00;;;;;;;4.83;4.30;;;18.60;66.20;;;;;;4953910;29;20204;-55
2023/04/28 08:04:26;;;;;;;4.10;3.80;;;18.50;66.50;;;;;;4953977;29;20442;-55
2023/04/28 08:06:52;;;;;;;5.60;3.97;;;18.60;66.40;;;;;;4950183;28;20220;-56
2023/04/28 08:09:18;;;;;;;5.37;4.60;;;18.70;66.20;;;;;;4951970;28;20687;-55
2023/04/28 08:11:43;;;;;;;5.40;4.27;;;18.70;66.10;;;;;;4951195;28;20515;-56
2023/04/28 08:14:09;;;;;;;4.40;4.00;;;18.80;66.40;;;;;;4954003;28;20210;-57
2023/04/28 08:16:37;;;;;;;5.07;4.67;;;18.80;66.80;;;;;;4953122;29;20707;-56
2023/04/28 08:19:03;;;;;;;5.27;4.57;;;18.90;67.20;;;;;;4953587;29;20586;-56
2023/04/28 08:21:28;;;;;;;5.37;4.10;;;18.90;67.20;;;;;;4951409;28;20459;-56
2023/04/28 08:23:54;;;;;;;4.30;3.83;;;19.00;67.20;;;;;;4953532;28;20196;-56
2023/04/28 08:26:20;;;;;;;5.47;4.30;;;19.00;67.10;;;;;;4953088;29;20224;-57
2023/04/28 08:28:45;;;;;;;4.37;3.97;;;19.00;67.10;;;;;;4939914;29;20227;-56
2023/04/28 08:31:11;;;;;;;4.30;4.00;;;19.10;67.00;;;;;;4939608;28;20275;-56
2023/04/28 08:33:37;;;;;;;4.10;3.73;;;19.10;66.80;;;;;;4949089;28;20232;-57
2023/04/28 08:36:04;;;;;;;4.30;3.90;;;19.10;66.80;;;;;;4944315;28;20484;-57
2023/04/28 08:38:29;;;;;;;3.80;3.50;;;18.80;67.10;;;;;;4939908;28;20443;-57
2023/04/28 08:40:55;;;;;;;4.43;4.03;;;18.30;70.50;;;;;;4947907;28;20864;-56
2023/04/28 08:43:20;;;;;;;5.63;5.07;;;18.50;70.60;;;;;;4944035;28;20197;-56
2023/04/28 08:45:46;;;;;;;4.93;4.43;;;18.70;69.50;;;;;;4943071;29;20228;-56
2023/04/28 08:48:19;;;;;;;5.27;4.77;;;18.70;69.20;;;;;;4950987;28;20196;-56
2023/04/28 08:50:52;;;;;;;5.23;3.90;;;18.80;69.40;;;;;;4944217;28;20299;-56
2023/04/28 08:53:26;;;;;;;5.03;4.53;;;18.90;69.40;;;;;;4952743;29;20494;-56
2023/04/28 08:55:57;;;;;;;4.70;4.10;;;18.50;71.30;;;;;;4944045;28;20443;-55
2023/04/28 08:58:24;;;;;;;7.37;4.70;;;18.40;72.40;;;;;;4941039;28;20525;-55
2023/04/28 09:00:52;;;;;;;5.10;4.70;;;18.50;72.20;;;;;;4950225;29;20479;-56
2023/04/28 09:03:18;;;;;;;7.47;5.00;;;18.70;71.20;;;;;;4947167;28;20447;-56
2023/04/28 09:05:44;;;;;;;5.80;5.20;;;18.80;70.70;;;;;;4948965;28;20455;-56
2023/04/28 09:08:11;;;;;;;6.23;5.27;;;18.90;70.80;;;;;;4943731;29;20203;-56
2023/04/28 09:10:37;;;;;;;5.77;4.53;;;19.00;70.40;;;;;;4950619;28;20534;-56
2023/04/28 09:13:03;;;;;;;7.23;4.70;;;19.10;70.10;;;;;;4945263;28;20531;-57
2023/04/28 09:15:36;;;;;;;5.80;4.57;;;19.10;69.60;;;;;;4945771;29;20472;-56
2023/04/28 09:18:04;;;;;;;5.53;4.97;;;19.10;69.70;;;;;;4949236;28;20460;-56
2023/04/28 09:20:31;;;;;;;7.07;5.90;;;19.10;69.60;;;;;;4944320;29;20457;-56
2023/04/28 09:23:16;;;;;;;6.00;5.40;;;19.10;69.60;;;;;;4952078;28;20427;-57
2023/04/28 09:26:03;;;;;;;6.27;5.17;;;19.00;69.90;;;;;;4944540;29;20449;-56
2023/04/28 09:28:33;;;;;;;5.93;5.00;;;18.60;72.20;;;;;;4949628;28;21385;-56
2023/04/28 09:30:59;;;;;;;5.33;4.83;;;18.70;72.10;;;;;;4947988;28;20495;-56
2023/04/28 09:33:25;;;;;;;5.50;5.00;;;18.60;71.00;;;;;;4940947;28;20998;-55
2023/04/28 09:35:51;;;;;;;5.57;5.00;;;18.80;71.50;;;;;;4942381;29;20483;-57
2023/04/28 09:38:19;;;;;;;5.00;4.50;;;19.00;71.10;;;;;;4944850;28;20455;-56
2023/04/28 09:40:55;;;;;;;5.20;4.70;;;19.10;70.40;;;;;;4945776;29;20455;-56
2023/04/28 09:43:29;;;;;;;6.43;4.80;;;19.20;70.10;;;;;;4943343;28;20450;-56
2023/04/28 09:45:57;;;;;;;5.13;4.63;;;19.30;69.80;;;;;;4937528;28;20516;-56
2023/04/28 09:48:27;;;;;;;5.40;5.00;;;19.40;69.40;;;;;;4946678;28;20436;-56
2023/04/28 09:50:55;;;;;;;4.50;4.10;;;19.50;69.30;;;;;;4939388;28;20439;-56
2023/04/28 09:53:23;;;;;;;5.20;4.70;;;19.60;69.30;;;;;;4945585;28;20491;-56
2023/04/28 09:55:50;;;;;;;6.23;4.17;;;19.60;69.20;;;;;;4939228;28;20455;-56
2023/04/28 09:58:19;;;;;;;4.37;4.00;;;19.50;68.90;;;;;;4940802;28;20451;-57
2023/04/28 10:00:50;;;;;;;3.93;3.63;;;19.40;70.00;;;;;;4944535;28;20446;-57
2023/04/28 10:03:17;;;;;;;5.83;5.20;;;19.30;70.90;;;;;;4953791;29;20459;-57
2023/04/28 10:05:44;;;;;;;5.53;5.03;;;19.30;70.70;;;;;;4949410;28;20495;-57
2023/04/28 10:08:09;;;;;;;4.47;4.13;;;19.50;70.70;;;;;;4944447;29;20483;-58
2023/04/28 10:10:36;;;;;;;7.57;5.27;;;19.50;70.70;;;;;;4938026;28;21065;-57
2023/04/28 10:13:02;;;;;;;4.30;3.90;;;19.50;70.80;;;;;;4949871;29;20258;-57
2023/04/28 10:15:27;;;;;;;4.50;4.10;;;19.70;70.50;;;;;;4943266;28;20920;-58
2023/04/28 10:17:54;;;;;;;4.97;4.37;;;19.70;70.40;;;;;;4946237;28;20208;-56
2023/04/28 10:20:21;;;;;;;5.17;4.10;;;19.80;70.60;;;;;;4944966;28;20209;-58
2023/04/28 10:22:50;;;;;;;5.57;5.07;;;19.80;71.40;;;;;;4949271;28;20949;-58
2023/04/28 10:25:34;;;;;;;5.13;4.10;;;19.80;72.40;;;;;;4945558;28;20455;-58
2023/04/28 10:28:04;;;;;;;4.30;3.90;;;19.70;74.40;;;;;;4952755;28;20450;-57
2023/04/28 10:30:30;;;;;;;5.13;4.73;;;19.70;72.80;;;;;;4943440;28;20447;-58
2023/04/28 10:33:05;;;;;;;5.00;4.60;;;19.80;72.80;;;;;;4941055;29;20555;-58
2023/04/28 10:35:38;;;;;;;5.47;4.27;;;19.80;71.40;;;;;;4946320;28;20255;-58
2023/04/28 10:38:12;;;;;;;6.00;4.67;;;19.70;72.90;;;;;;4941121;29;20443;-58
2023/04/28 10:40:41;;;;;;;5.27;4.83;;;19.80;74.40;;;;;;4949174;28;21086;-58
2023/04/28 10:43:12;;;;;;;7.70;5.43;;;20.00;74.90;;;;;;4944341;28;20448;-58
2023/04/28 10:45:53;;;;;;;6.30;5.00;;;20.10;75.50;;;;;;4950785;29;20451;-59
2023/04/28 10:48:28;;;;;;;7.43;4.97;;;20.40;75.40;;;;;;4949903;29;20459;-58
2023/04/28 10:51:03;;;;;;;19.57;17.77;;;20.60;75.00;;;;;;4954797;28;20453;-58
2023/04/28 10:53:43;;;;;;;7.53;6.37;;;20.80;74.80;;;;;;4943542;28;20490;-58
2023/04/28 10:56:20;;;;;;;5.13;4.37;;;20.80;74.90;;;;;;4941482;29;20879;-58
2023/04/28 10:58:55;;;;;;;5.73;4.43;;;20.90;74.50;;;;;;4943239;28;20967;-58
2023/04/28 11:01:23;;;;;;;4.60;4.20;;;21.00;72.90;;;;;;4948579;28;20456;-58
2023/04/28 11:03:50;;;;;;;4.03;3.63;;;21.00;73.40;;;;;;4943485;28;21154;-58
2023/04/28 11:06:20;;;;;;;4.07;3.53;;;21.00;73.70;;;;;;4943121;28;20490;-58
2023/04/28 11:08:45;;;;;;;3.33;3.03;;;21.10;73.60;;;;;;4953276;28;20460;-60
2023/04/28 11:11:16;;;;;;;3.77;3.47;;;21.10;74.30;;;;;;4952440;29;20439;-58
2023/04/28 11:13:45;;;;;;;5.57;5.07;;;21.20;74.60;;;;;;4941595;29;20216;-57
2023/04/28 11:16:13;;;;;;;5.60;5.10;;;21.30;75.20;;;;;;4948630;29;20444;-58
2023/04/28 11:19:02;;;;;;;4.63;4.23;;;21.50;75.00;;;;;;4945591;29;20451;-58
2023/04/28 11:21:27;;;;;;;6.27;5.50;;;21.50;75.10;;;;;;4949323;28;20448;-58
2023/04/28 11:23:53;;;;;;;5.90;4.90;;;21.50;73.80;;;;;;4952224;29;20503;-58
2023/04/28 11:26:22;;;;;;;7.50;4.20;;;21.50;74.00;;;;;;4943727;28;20195;-58
2023/04/28 11:28:50;;;;;;;4.20;3.90;;;21.60;74.40;;;;;;4950950;29;20199;-58
2023/04/28 11:31:18;;;;;;;4.20;3.10;;;21.70;75.90;;;;;;4949794;28;20529;-58
2023/04/28 11:33:46;;;;;;;8.10;5.00;;;21.60;75.70;;;;;;4947647;29;20522;-58
2023/04/28 11:36:28;;;;;;;2.57;2.37;;;21.60;76.60;;;;;;4948964;29;20480;-58
2023/04/28 11:38:55;;;;;;;3.33;2.77;;;21.70;74.10;;;;;;4947506;28;20538;-58
2023/04/28 11:41:27;;;;;;;4.30;2.10;;;21.60;75.40;;;;;;4940225;28;20456;-58
2023/04/28 11:43:53;;;;;;;1.70;1.60;;;21.40;74.10;;;;;;4948853;28;20475;-58
2023/04/28 11:46:21;;;;;;;2.40;2.20;;;21.60;73.50;;;;;;4947000;28;20947;-58
2023/04/28 11:48:47;;;;;;;1.87;1.70;;;21.80;74.90;;;;;;4944423;29;20653;-58
2023/04/28 11:51:33;;;;;;;2.20;1.63;;;21.70;73.30;;;;;;4954505;28;20467;-57
2023/04/28 11:54:00;;;;;;;3.50;2.27;;;21.80;73.00;;;;;;4947620;28;20460;-58
2023/04/28 11:56:26;;;;;;;1.73;1.63;;;21.90;73.70;;;;;;4947417;28;20452;-58
2023/04/28 11:59:07;;;;;;;1.97;1.80;;;22.00;73.00;;;;;;4950803;28;20454;-58
2023/04/28 12:01:36;;;;;;;2.00;1.90;;;22.10;72.20;;;;;;4950320;29;20482;-58
2023/04/28 12:04:02;;;;;;;2.43;2.23;;;22.00;73.80;;;;;;4952299;29;20444;-58
2023/04/28 12:06:28;;;;;;;2.17;1.97;;;22.10;73.50;;;;;;4940487;28;20530;-58
2023/04/28 12:08:54;;;;;;;2.87;2.67;;;22.20;73.20;;;;;;4939706;28;20729;-58
2023/04/28 12:11:20;;;;;;;2.50;2.30;;;22.30;73.70;;;;;;4940880;28;20967;-59
2023/04/28 12:14:08;;;;;;;1.43;1.33;;;22.40;73.70;;;;;;4946407;28;20527;-58
2023/04/28 12:16:43;;;;;;;1.60;1.50;;;22.40;74.00;;;;;;4941174;28;20200;-58
2023/04/28 12:19:10;;;;;;;2.27;1.77;;;22.30;73.30;;;;;;4938800;29;20463;-58
2023/04/28 12:21:37;;;;;;;2.00;1.80;;;22.30;73.10;;;;;;4942763;29;20443;-58
2023/04/28 12:24:14;;;;;;;2.13;1.53;;;22.10;73.00;;;;;;4945790;28;20475;-58
2023/04/28 12:26:40;;;;;;;1.67;1.57;;;22.00;72.60;;;;;;4948031;29;20498;-59
2023/04/28 12:29:06;;;;;;;2.43;1.80;;;22.10;72.50;;;;;;4946780;28;20482;-59
2023/04/28 12:31:32;;;;;;;1.40;1.30;;;22.20;72.70;;;;;;4949117;29;20572;-59
2023/04/28 12:33:57;;;;;;;4.03;1.40;;;22.10;72.70;;;;;;4944740;28;20287;-59
2023/04/28 12:36:23;;;;;;;1.73;1.63;;;22.10;72.20;;;;;;4944640;28;20235;-59
2023/04/28 12:38:49;;;;;;;2.00;1.37;;;21.80;71.60;;;;;;4950718;29;20303;-59
2023/04/28 12:41:14;;;;;;;3.30;1.50;;;21.70;71.70;;;;;;4941964;28;20215;-59
2023/04/28 12:43:43;;;;;;;1.20;1.10;;;21.60;72.40;;;;;;4942878;29;20185;-58
2023/04/28 12:46:10;;;;;;;1.20;1.10;;;21.60;72.50;;;;;;4942943;28;20279;-59